createdAt,value
2017-06-11T00:01:43.116Z,8.07
2017-06-11T00:04:11.559Z,8.33
2017-06-11T00:06:39.986Z,7.70
2017-06-11T00:09:08.421Z,8.37
2017-06-11T00:11:36.930Z,7.33
2017-06-11T00:14:06.134Z,7.93
2017-06-11T00:16:35.460Z,7.90
2017-06-11T00:19:03.887Z,7.80
2017-06-11T00:21:32.364Z,9.17
2017-06-11T00:24:00.767Z,7.73
2017-06-11T00:26:29.967Z,7.70
2017-06-11T00:28:59.186Z,9.90
2017-06-11T00:31:27.642Z,6.57
2017-06-11T00:33:56.054Z,7.13
2017-06-11T00:36:24.483Z,9.97
2017-06-11T00:38:52.921Z,8.63
2017-06-11T00:41:21.465Z,7.50
2017-06-11T00:43:49.912Z,7.30
2017-06-11T00:46:18.350Z,8.03
2017-06-11T00:48:46.811Z,8.20
2017-06-11T00:51:15.234Z,6.87
2017-06-11T00:53:43.759Z,7.57
2017-06-11T00:56:12.191Z,7.60
2017-06-11T00:58:40.692Z,9.73
2017-06-11T01:01:09.126Z,8.03
2017-06-11T01:03:37.583Z,7.53
2017-06-11T01:06:06.011Z,6.83
2017-06-11T01:08:34.459Z,7.63
2017-06-11T01:11:03.003Z,7.23
2017-06-11T01:13:31.415Z,7.57
2017-06-11T01:15:59.885Z,7.20
2017-06-11T01:18:29.106Z,7.40
2017-06-11T01:20:57.600Z,8.53
2017-06-11T01:23:26.138Z,6.53
2017-06-11T01:25:54.567Z,7.93
2017-06-11T01:28:23.767Z,7.77
2017-06-11T01:30:52.966Z,7.73
2017-06-11T01:33:21.407Z,8.10
2017-06-11T01:35:49.842Z,12.07
2017-06-11T01:38:18.732Z,9.90
2017-06-11T01:40:47.919Z,10.60
2017-06-11T01:43:17.124Z,8.83
2017-06-11T01:45:46.347Z,7.37
2017-06-11T01:48:14.878Z,8.27
2017-06-11T01:50:43.330Z,7.17
2017-06-11T01:53:11.776Z,7.20
2017-06-11T01:55:40.984Z,6.90
2017-06-11T01:58:09.458Z,9.93
2017-06-11T02:00:38.655Z,5.47
2017-06-11T02:03:07.842Z,7.17
2017-06-11T02:05:37.052Z,7.80
2017-06-11T02:08:06.247Z,7.70
2017-06-11T02:10:35.560Z,8.10
2017-06-11T02:13:04.668Z,7.63
2017-06-11T02:15:33.134Z,7.23
2017-06-11T02:18:02.311Z,7.30
2017-06-11T02:20:30.788Z,9.23
2017-06-11T02:22:59.437Z,6.87
2017-06-11T02:25:27.927Z,8.17
2017-06-11T02:27:56.342Z,7.00
2017-06-11T02:30:24.790Z,8.20
2017-06-11T02:32:53.269Z,6.20
2017-06-11T02:35:21.768Z,7.33
2017-06-11T02:37:50.204Z,8.77
2017-06-11T02:40:18.627Z,8.60
2017-06-11T02:42:47.055Z,7.93
2017-06-11T02:45:16.238Z,8.27
2017-06-11T02:47:44.656Z,8.60
2017-06-11T02:50:13.095Z,8.93
2017-06-11T02:52:41.527Z,8.20
2017-06-11T02:55:09.979Z,8.20
2017-06-11T02:57:39.171Z,7.80
2017-06-11T03:00:08.357Z,8.63
2017-06-11T03:02:36.803Z,9.90
2017-06-11T03:05:05.255Z,8.60
2017-06-11T03:07:33.689Z,9.17
2017-06-11T03:10:02.112Z,8.33
2017-06-11T03:12:31.338Z,7.03
2017-06-11T03:14:59.759Z,8.93
2017-06-11T03:17:28.175Z,7.07
2017-06-11T03:19:56.615Z,9.03
2017-06-11T03:22:25.031Z,8.33
2017-06-11T03:24:54.229Z,7.80
2017-06-11T03:27:23.534Z,7.50
2017-06-11T03:29:52.046Z,7.73
2017-06-11T03:32:20.470Z,7.23
2017-06-11T03:34:48.902Z,9.40
2017-06-11T03:37:17.362Z,8.23
2017-06-11T03:39:45.819Z,8.30
2017-06-11T03:42:16.663Z,7.00
2017-06-11T03:44:45.859Z,6.10
2017-06-11T03:47:14.975Z,7.73
2017-06-11T03:49:44.179Z,7.33
2017-06-11T03:52:12.596Z,8.33
2017-06-11T03:54:41.035Z,7.30
2017-06-11T03:57:10.231Z,8.23
2017-06-11T03:59:39.455Z,8.30
2017-06-11T04:02:07.890Z,7.03
2017-06-11T04:04:36.342Z,7.23
2017-06-11T04:07:04.862Z,6.67
2017-06-11T04:09:33.276Z,7.50
2017-06-11T04:12:01.779Z,7.23
2017-06-11T04:14:30.335Z,7.33
2017-06-11T04:16:59.530Z,7.33
2017-06-11T04:19:27.960Z,7.77
2017-06-11T04:21:56.502Z,7.80
2017-06-11T04:24:25.811Z,7.97
2017-06-11T04:26:54.227Z,8.30
2017-06-11T04:29:22.671Z,7.93
2017-06-11T04:31:51.174Z,9.33
2017-06-11T04:34:19.579Z,9.17
2017-06-11T04:36:48.208Z,9.53
2017-06-11T04:39:17.555Z,7.80
2017-06-11T04:41:45.990Z,7.70
2017-06-11T04:44:15.254Z,13.70
2017-06-11T04:46:43.744Z,10.77
2017-06-11T04:49:12.175Z,7.43
2017-06-11T04:51:40.603Z,7.30
2017-06-11T04:54:09.022Z,9.00
2017-06-11T04:56:37.467Z,9.10
2017-06-11T04:59:05.888Z,9.60
2017-06-11T05:01:34.303Z,9.10
2017-06-11T05:04:02.750Z,10.40
2017-06-11T05:06:31.206Z,10.37
2017-06-11T05:08:59.642Z,10.00
2017-06-11T05:11:28.071Z,10.60
2017-06-11T05:13:57.540Z,10.00
2017-06-11T05:16:25.980Z,10.50
2017-06-11T05:18:54.415Z,11.93
2017-06-11T05:21:22.860Z,9.80
2017-06-11T05:23:51.298Z,9.77
2017-06-11T05:26:19.907Z,10.20
2017-06-11T05:28:48.339Z,10.43
2017-06-11T05:31:16.780Z,8.80
2017-06-11T05:33:45.211Z,9.77
2017-06-11T05:36:13.647Z,8.97
2017-06-11T05:38:43.523Z,9.30
2017-06-11T05:41:11.946Z,11.00
2017-06-11T05:43:40.190Z,9.93
2017-06-11T05:46:09.383Z,10.73
2017-06-11T05:48:37.899Z,14.10
2017-06-11T05:51:06.347Z,10.70
2017-06-11T05:53:34.785Z,11.23
2017-06-11T05:56:03.227Z,12.53
2017-06-11T05:58:32.418Z,12.40
2017-06-11T06:01:01.719Z,11.60
2017-06-11T06:03:30.920Z,12.07
2017-06-11T06:06:00.123Z,14.63
2017-06-11T06:08:28.562Z,11.30
2017-06-11T06:10:56.986Z,13.30
2017-06-11T06:13:26.224Z,11.93
2017-06-11T06:15:54.655Z,11.33
2017-06-11T06:18:23.883Z,12.50
2017-06-11T06:20:52.306Z,10.27
2017-06-11T06:23:20.756Z,12.83
2017-06-11T06:25:49.187Z,9.10
2017-06-11T06:28:17.734Z,8.73
2017-06-11T06:30:46.214Z,9.20
2017-06-11T06:33:14.638Z,8.40
2017-06-11T06:35:42.893Z,7.43
2017-06-11T06:38:11.339Z,6.77
2017-06-11T06:40:39.759Z,6.50
2017-06-11T06:43:08.304Z,9.97
2017-06-11T06:45:36.733Z,7.20
2017-06-11T06:48:05.151Z,7.13
2017-06-11T06:50:34.351Z,7.47
2017-06-11T06:53:02.791Z,6.60
2017-06-11T06:55:31.243Z,6.33
2017-06-11T06:57:59.659Z,6.40
2017-06-11T07:00:28.085Z,8.03
2017-06-11T07:02:56.522Z,5.70
2017-06-11T07:05:24.943Z,6.10
2017-06-11T07:07:53.374Z,5.40
2017-06-11T07:10:22.003Z,6.03
2017-06-11T07:12:51.223Z,5.90
2017-06-11T07:15:19.664Z,4.70
2017-06-11T07:17:48.088Z,4.43
2017-06-11T07:20:16.511Z,6.53
2017-06-11T07:22:44.964Z,4.50
2017-06-11T07:25:13.519Z,4.50
2017-06-11T07:27:41.965Z,4.20
2017-06-11T07:30:10.391Z,4.50
2017-06-11T07:32:38.827Z,5.43
2017-06-11T07:35:07.271Z,5.33
2017-06-11T07:37:35.703Z,7.57
2017-06-11T07:40:04.830Z,5.50
2017-06-11T07:42:33.312Z,5.63
2017-06-11T07:45:01.800Z,5.60
2017-06-11T07:47:30.204Z,5.30
2017-06-11T07:49:58.647Z,5.90
2017-06-11T07:52:27.086Z,6.97
2017-06-11T07:54:55.512Z,5.27
2017-06-11T07:57:23.948Z,5.20
2017-06-11T07:59:52.380Z,6.67
2017-06-11T08:02:20.828Z,5.10
2017-06-11T08:04:49.312Z,5.00
2017-06-11T08:07:18.596Z,5.50
2017-06-11T08:09:47.055Z,6.53
2017-06-11T08:12:15.472Z,4.53
2017-06-11T08:14:43.998Z,4.60
2017-06-11T08:17:12.508Z,5.77
2017-06-11T08:19:40.949Z,4.63
2017-06-11T08:22:10.146Z,4.73
2017-06-11T08:24:38.578Z,6.40
2017-06-11T08:27:07.059Z,4.43
2017-06-11T08:29:35.494Z,4.97
2017-06-11T08:32:03.931Z,4.50
2017-06-11T08:34:32.370Z,9.43
2017-06-11T08:37:00.799Z,6.53
2017-06-11T08:39:29.231Z,4.23
2017-06-11T08:41:57.391Z,3.90
2017-06-11T08:44:26.590Z,4.23
2017-06-11T08:46:55.805Z,4.40
2017-06-11T08:49:24.236Z,4.90
2017-06-11T08:51:52.680Z,4.50
2017-06-11T08:54:21.271Z,7.23
2017-06-11T08:56:49.783Z,4.37
2017-06-11T08:59:18.367Z,3.97
2017-06-11T09:01:46.838Z,4.33
2017-06-11T09:04:15.279Z,4.17
2017-06-11T09:06:43.710Z,4.33
2017-06-11T09:09:12.163Z,4.07
2017-06-11T09:11:40.591Z,4.80
2017-06-11T09:14:09.115Z,4.23
2017-06-11T09:16:37.531Z,4.27
2017-06-11T09:19:05.960Z,3.73
2017-06-11T09:21:34.492Z,3.40
2017-06-11T09:24:02.931Z,6.80
2017-06-11T09:26:31.383Z,4.73
2017-06-11T09:28:59.840Z,12.13
2017-06-11T09:31:28.285Z,3.93
2017-06-11T09:33:56.711Z,4.03
2017-06-11T09:36:25.147Z,3.77
2017-06-11T09:38:53.583Z,4.07
2017-06-11T09:41:22.030Z,5.00
2017-06-11T09:43:50.464Z,4.03
2017-06-11T09:46:18.897Z,4.00
2017-06-11T09:48:48.124Z,4.70
2017-06-11T09:51:16.568Z,5.13
2017-06-11T09:53:44.999Z,4.40
2017-06-11T09:56:13.414Z,3.90
2017-06-11T09:58:42.527Z,3.90
2017-06-11T10:01:11.002Z,3.53
2017-06-11T10:03:39.414Z,4.10
2017-06-11T10:06:07.883Z,4.37
2017-06-11T10:08:36.317Z,4.37
2017-06-11T10:11:04.754Z,3.57
2017-06-11T10:13:33.193Z,7.97
2017-06-11T10:16:01.643Z,3.73
2017-06-11T10:18:30.099Z,3.70
2017-06-11T10:20:58.516Z,3.50
2017-06-11T10:23:26.971Z,5.53
2017-06-11T10:25:55.432Z,4.13
2017-06-11T10:28:23.987Z,3.53
2017-06-11T10:30:52.414Z,6.03
2017-06-11T10:33:20.852Z,4.10
2017-06-11T10:35:49.279Z,3.30
2017-06-11T10:38:17.717Z,3.10
2017-06-11T10:40:46.292Z,3.40
2017-06-11T10:43:14.723Z,3.43
2017-06-11T10:45:43.136Z,3.07
2017-06-11T10:48:11.582Z,3.03
2017-06-11T10:50:40.032Z,4.13
2017-06-11T10:53:08.445Z,3.17
2017-06-11T10:55:36.885Z,4.43
2017-06-11T10:58:05.327Z,3.67
2017-06-11T11:00:33.751Z,3.17
2017-06-11T11:03:02.176Z,3.43
2017-06-11T11:05:30.695Z,3.33
2017-06-11T11:07:59.133Z,4.10
2017-06-11T11:10:27.551Z,2.60
2017-06-11T11:12:56.013Z,3.63
2017-06-11T11:15:24.423Z,3.30
2017-06-11T11:17:52.864Z,4.03
2017-06-11T11:20:21.300Z,3.33
2017-06-11T11:22:49.746Z,4.03
2017-06-11T11:25:18.226Z,3.00
2017-06-11T11:27:46.663Z,2.93
2017-06-11T11:30:15.102Z,3.03
2017-06-11T11:32:43.547Z,4.23
2017-06-11T11:35:11.996Z,3.13
2017-06-11T11:37:40.420Z,2.80
2017-06-11T11:40:08.871Z,2.83
2017-06-11T11:42:37.283Z,6.00
2017-06-11T11:45:05.715Z,3.07
2017-06-11T11:47:34.178Z,4.50
2017-06-11T11:50:02.592Z,3.30
2017-06-11T11:52:31.060Z,3.17
2017-06-11T11:54:59.491Z,2.30
2017-06-11T11:57:27.927Z,3.03
2017-06-11T11:59:56.378Z,2.60
2017-06-11T12:02:24.838Z,2.77
2017-06-11T12:04:53.259Z,1.90
2017-06-11T12:07:21.714Z,2.50
2017-06-11T12:09:50.137Z,2.50
2017-06-11T12:12:18.559Z,2.00
2017-06-11T12:14:46.995Z,2.00
2017-06-11T12:17:15.422Z,1.57
2017-06-11T12:19:43.873Z,2.37
2017-06-11T12:22:12.322Z,2.17
2017-06-11T12:24:40.753Z,2.30
2017-06-11T12:27:09.188Z,2.53
2017-06-11T12:29:37.618Z,2.23
2017-06-11T12:32:06.130Z,5.63
2017-06-11T12:34:34.567Z,2.40
2017-06-11T12:37:02.999Z,2.60
2017-06-11T12:39:31.439Z,2.80
2017-06-11T12:41:59.879Z,2.20
2017-06-11T12:44:28.360Z,3.60
2017-06-11T12:46:56.802Z,1.87
2017-06-11T12:49:25.251Z,1.93
2017-06-11T12:51:53.687Z,2.07
2017-06-11T12:54:22.103Z,1.80
2017-06-11T12:56:50.564Z,3.40
2017-06-11T12:59:18.995Z,1.73
2017-06-11T13:01:47.469Z,1.97
2017-06-11T13:04:15.915Z,2.03
2017-06-11T13:06:44.388Z,2.10
2017-06-11T13:09:12.823Z,1.83
2017-06-11T13:11:41.261Z,1.87
2017-06-11T13:14:09.719Z,1.90
2017-06-11T13:16:38.150Z,1.97
2017-06-11T13:19:06.695Z,2.00
2017-06-11T13:21:35.151Z,1.80
2017-06-11T13:24:03.583Z,2.43
2017-06-11T13:26:32.002Z,2.10
2017-06-11T13:29:00.460Z,2.07
2017-06-11T13:31:28.955Z,1.90
2017-06-11T13:33:57.386Z,2.57
2017-06-11T13:36:25.843Z,2.07
2017-06-11T13:38:54.258Z,2.00
2017-06-11T13:41:22.711Z,2.70
2017-06-11T13:43:51.156Z,2.57
2017-06-11T13:46:19.583Z,2.10
2017-06-11T13:48:48.039Z,2.40
2017-06-11T13:51:16.480Z,1.87
2017-06-11T13:53:44.904Z,2.33
2017-06-11T13:56:14.019Z,1.90
2017-06-11T13:58:42.578Z,2.20
2017-06-11T14:01:11.007Z,2.10
2017-06-11T14:03:39.453Z,2.10
2017-06-11T14:06:07.875Z,1.77
2017-06-11T14:08:36.388Z,2.83
2017-06-11T14:11:04.835Z,2.00
2017-06-11T14:13:33.098Z,2.50
2017-06-11T14:16:01.559Z,1.70
2017-06-11T14:18:29.990Z,2.10
2017-06-11T14:20:58.247Z,2.00
2017-06-11T14:23:26.476Z,2.30
2017-06-11T14:25:54.716Z,6.47
2017-06-11T14:28:23.000Z,2.97
2017-06-11T14:30:51.447Z,2.53
2017-06-11T14:33:19.893Z,4.20
2017-06-11T14:35:48.331Z,2.20
2017-06-11T14:38:16.784Z,2.10
2017-06-11T14:40:45.216Z,2.23
2017-06-11T14:43:13.674Z,1.80
2017-06-11T14:45:42.113Z,4.03
2017-06-11T14:48:10.551Z,1.87
2017-06-11T14:50:38.991Z,2.23
2017-06-11T14:53:07.435Z,1.97
2017-06-11T14:55:35.891Z,2.30
2017-06-11T14:58:04.330Z,2.17
2017-06-11T15:00:32.811Z,2.00
2017-06-11T15:03:01.239Z,2.13
2017-06-11T15:05:29.691Z,2.27
2017-06-11T15:07:58.112Z,2.10
2017-06-11T15:10:26.623Z,2.50
2017-06-11T15:12:55.144Z,2.20
2017-06-11T15:15:23.570Z,2.17
2017-06-11T15:17:51.994Z,2.20
2017-06-11T15:20:20.467Z,2.20
2017-06-11T15:22:48.901Z,2.20
2017-06-11T15:25:17.339Z,5.57
2017-06-11T15:27:45.788Z,2.13
2017-06-11T15:30:14.211Z,7.03
2017-06-11T15:32:42.745Z,2.17
2017-06-11T15:35:11.186Z,4.83
2017-06-11T15:37:39.623Z,2.50
2017-06-11T15:40:08.062Z,2.10
2017-06-11T15:42:36.560Z,2.20
2017-06-11T15:45:05.004Z,2.63
2017-06-11T15:47:33.416Z,3.00
2017-06-11T15:50:01.863Z,2.10
2017-06-11T15:52:30.288Z,2.00
2017-06-11T15:54:58.731Z,2.47
2017-06-11T15:57:27.162Z,1.93
2017-06-11T15:59:55.599Z,2.50
2017-06-11T16:02:24.109Z,2.10
2017-06-11T16:04:52.530Z,2.30
2017-06-11T16:07:20.998Z,5.83
2017-06-11T16:09:49.439Z,2.27
2017-06-11T16:12:17.889Z,2.17
2017-06-11T16:14:46.359Z,2.27
2017-06-11T16:17:14.776Z,1.93
2017-06-11T16:19:43.308Z,2.20
2017-06-11T16:22:11.747Z,2.97
2017-06-11T16:24:40.154Z,2.93
2017-06-11T16:27:08.611Z,4.30
2017-06-11T16:29:37.059Z,2.60
2017-06-11T16:32:05.511Z,2.63
2017-06-11T16:34:34.010Z,6.00
2017-06-11T16:37:02.457Z,2.17
2017-06-11T16:39:30.897Z,2.63
2017-06-11T16:42:00.014Z,3.03
2017-06-11T16:44:28.472Z,2.70
2017-06-11T16:46:56.901Z,2.90
2017-06-11T16:49:25.334Z,2.73
2017-06-11T16:51:53.781Z,2.60
2017-06-11T16:54:22.223Z,2.87
2017-06-11T16:56:50.733Z,3.00
2017-06-11T16:59:19.199Z,3.20
2017-06-11T17:01:47.643Z,2.80
2017-06-11T17:04:16.066Z,2.40
2017-06-11T17:06:44.516Z,3.03
2017-06-11T17:09:12.949Z,3.20
2017-06-11T17:11:41.378Z,3.43
2017-06-11T17:14:09.840Z,3.70
2017-06-11T17:16:38.286Z,3.87
2017-06-11T17:19:06.749Z,3.40
2017-06-11T17:21:35.170Z,4.10
2017-06-11T17:24:03.639Z,2.80
2017-06-11T17:26:32.114Z,3.80
2017-06-11T17:29:00.585Z,2.73
2017-06-11T17:31:29.014Z,6.17
2017-06-11T17:33:57.468Z,3.50
2017-06-11T17:36:25.899Z,3.63
2017-06-11T17:38:54.336Z,4.23
2017-06-11T17:41:23.176Z,4.60
2017-06-11T17:43:51.640Z,3.70
2017-06-11T17:46:20.074Z,3.60
2017-06-11T17:48:48.522Z,3.03
2017-06-11T17:51:16.986Z,3.20
2017-06-11T17:53:45.406Z,3.10
2017-06-11T17:56:13.850Z,7.60
2017-06-11T17:58:42.285Z,3.20
2017-06-11T18:01:10.718Z,2.43
2017-06-11T18:03:39.159Z,3.10
2017-06-11T18:06:07.603Z,3.20
2017-06-11T18:08:36.070Z,2.90
2017-06-11T18:11:04.504Z,4.00
2017-06-11T18:13:32.961Z,2.87
2017-06-11T18:16:01.425Z,5.60
2017-06-11T18:18:29.876Z,2.97
2017-06-11T18:20:58.296Z,3.00
2017-06-11T18:23:26.755Z,3.73
2017-06-11T18:25:55.196Z,3.83
2017-06-11T18:28:23.614Z,3.83
2017-06-11T18:30:52.084Z,5.03
2017-06-11T18:33:20.527Z,4.07
2017-06-11T18:35:48.987Z,4.50
2017-06-11T18:38:17.451Z,4.53
2017-06-11T18:40:45.889Z,4.70
2017-06-11T18:43:14.320Z,4.47
2017-06-11T18:45:42.786Z,5.40
2017-06-11T18:48:11.208Z,4.87
2017-06-11T18:50:39.659Z,3.93
2017-06-11T18:53:08.094Z,4.40
2017-06-11T18:55:36.552Z,4.57
2017-06-11T18:58:05.024Z,4.57
2017-06-11T19:00:33.471Z,3.97
2017-06-11T19:03:01.922Z,4.13
2017-06-11T19:05:30.379Z,4.43
2017-06-11T19:07:58.811Z,4.20
2017-06-11T19:10:27.307Z,3.80
2017-06-11T19:12:55.756Z,4.17
2017-06-11T19:15:24.197Z,3.83
2017-06-11T19:17:52.719Z,5.80
2017-06-11T19:20:21.162Z,4.67
2017-06-11T19:22:49.624Z,4.63
2017-06-11T19:25:18.090Z,6.47
2017-06-11T19:27:47.308Z,7.10
2017-06-11T19:30:15.741Z,5.67
2017-06-11T19:32:44.162Z,5.00
2017-06-11T19:35:12.652Z,6.40
2017-06-11T19:37:41.079Z,6.60
2017-06-11T19:40:09.358Z,5.50
2017-06-11T19:42:38.606Z,7.93
2017-06-11T19:45:07.042Z,7.47
2017-06-11T19:47:35.676Z,8.00
2017-06-11T19:50:04.118Z,7.43
2017-06-11T19:52:32.640Z,7.10
2017-06-11T19:55:01.091Z,6.73
2017-06-11T19:57:30.314Z,6.47
2017-06-11T19:59:58.783Z,6.27
2017-06-11T20:02:28.104Z,8.60
2017-06-11T20:04:56.551Z,5.83
2017-06-11T20:07:25.074Z,7.03
2017-06-11T20:09:53.568Z,6.23
2017-06-11T20:12:22.835Z,6.87
2017-06-11T20:14:52.069Z,5.97
2017-06-11T20:17:20.591Z,6.53
2017-06-11T20:19:49.022Z,6.63
2017-06-11T20:22:17.483Z,7.93
2017-06-11T20:24:46.674Z,6.33
2017-06-11T20:27:15.899Z,5.67
2017-06-11T20:29:44.371Z,6.80
2017-06-11T20:32:12.824Z,6.23
2017-06-11T20:34:41.274Z,7.53
2017-06-11T20:37:09.430Z,6.23
2017-06-11T20:39:37.872Z,6.23
2017-06-11T20:42:06.309Z,6.83
2017-06-11T20:44:34.768Z,6.57
2017-06-11T20:47:03.230Z,6.50
2017-06-11T20:49:32.441Z,6.43
2017-06-11T20:52:01.038Z,8.60
2017-06-11T20:54:29.482Z,6.53
2017-06-11T20:56:58.729Z,6.30
2017-06-11T20:59:27.167Z,6.97
2017-06-11T21:01:56.392Z,6.60
2017-06-11T21:04:24.823Z,6.73
2017-06-11T21:06:53.382Z,8.63
2017-06-11T21:09:21.855Z,7.37
2017-06-11T21:11:50.299Z,9.07
2017-06-11T21:14:19.508Z,6.10
2017-06-11T21:16:48.722Z,7.30
2017-06-11T21:19:17.217Z,7.30
2017-06-11T21:21:45.716Z,6.63
2017-06-11T21:24:14.151Z,6.93
2017-06-11T21:26:43.370Z,6.03
2017-06-11T21:29:11.826Z,7.23
2017-06-11T21:31:41.076Z,6.07
2017-06-11T21:34:09.684Z,7.60
2017-06-11T21:36:38.241Z,6.63
2017-06-11T21:39:06.678Z,6.90
2017-06-11T21:41:35.906Z,7.50
2017-06-11T21:44:04.343Z,6.10
2017-06-11T21:46:32.787Z,6.47
2017-06-11T21:49:01.221Z,6.27
2017-06-11T21:51:30.430Z,6.63
2017-06-11T21:53:59.327Z,7.70
2017-06-11T21:56:27.808Z,6.63
2017-06-11T21:58:56.416Z,5.93
2017-06-11T22:01:24.854Z,6.60
2017-06-11T22:03:53.278Z,7.53
2017-06-11T22:06:21.754Z,7.40
2017-06-11T22:08:50.191Z,6.30
2017-06-11T22:11:18.615Z,7.00
2017-06-11T22:13:47.064Z,7.93
2017-06-11T22:16:15.503Z,6.00
2017-06-11T22:18:43.958Z,7.47
2017-06-11T22:21:12.388Z,7.60
2017-06-11T22:23:40.834Z,7.50
2017-06-11T22:26:09.300Z,9.00
2017-06-11T22:28:37.754Z,7.90
2017-06-11T22:31:07.070Z,9.23
2017-06-11T22:33:35.527Z,6.63
2017-06-11T22:36:03.951Z,7.13
2017-06-11T22:38:32.388Z,6.60
2017-06-11T22:41:00.483Z,7.53
2017-06-11T22:43:29.698Z,8.10
2017-06-11T22:45:58.163Z,9.23
2017-06-11T22:48:27.382Z,7.33
2017-06-11T22:50:55.808Z,7.63
2017-06-11T22:53:24.260Z,7.70
2017-06-11T22:55:52.770Z,7.80
2017-06-11T22:58:21.222Z,7.50
2017-06-11T23:00:49.668Z,6.93
2017-06-11T23:03:18.888Z,7.60
2017-06-11T23:05:47.342Z,7.90
2017-06-11T23:08:16.550Z,7.43
2017-06-11T23:10:45.743Z,7.17
2017-06-11T23:13:14.964Z,7.57
2017-06-11T23:15:43.394Z,7.73
2017-06-11T23:18:11.856Z,7.20
2017-06-11T23:20:40.274Z,7.77
2017-06-11T23:23:08.694Z,7.27
2017-06-11T23:25:37.138Z,8.60
2017-06-11T23:28:06.351Z,8.50
2017-06-11T23:30:35.552Z,7.90
2017-06-11T23:33:04.749Z,7.33
2017-06-11T23:35:34.068Z,7.50
2017-06-11T23:38:02.492Z,8.10
2017-06-11T23:40:30.955Z,7.67
2017-06-11T23:42:59.394Z,8.13
2017-06-11T23:45:28.621Z,7.57
2017-06-11T23:47:57.071Z,8.07
2017-06-11T23:50:26.287Z,7.67
2017-06-11T23:52:54.726Z,7.00
2017-06-11T23:55:23.163Z,8.00
2017-06-11T23:57:51.642Z,7.83
